Terminal Aerodrome Forecast
Issued by NWS

Home | Current Version | Previous Version | Text Only | Print | Product List | Glossary On
Versions: 1 2 3 4 5 6 7 8 9 10 11 12
000
FTUS46 KMTR 262300
TAFMRY
TAF
KMRY 262334Z 2700/2724 00000KT P6SM OVC200
     FM270300 VRB03KT P6SM OVC200
     FM271100 11006KT P6SM VCSH SCT080 OVC150
     FM271800 VRB03KT P6SM SCT100 BKN150
     FM272200 30005KT P6SM BKN200=

USA.gov is the U.S. government's official web portal to all federal, state and local government web resources and services.